Time;durP1;ratioP1;P1;durP2;ratioP2;P2;SDS_P1;SDS_P2;PMS_P1;PMS_P2;Temp;Humidity;BMP_temperature;BMP_pressure;BME280_temperature;BME280_humidity;BME280_pressure;Samples;Min_cycle;Max_cycle;Signal;HPM_P1;HPM_P2
2022/11/19 00:01:34;;;;;;;4.40;3.63;;;1.50;99.90;;;;;;6116019;23;20055;-90
2022/11/19 00:04:06;;;;;;;6.18;4.07;;;1.50;99.90;;;;;;6115557;23;20021;-89
2022/11/19 00:06:31;;;;;;;5.40;3.67;;;1.50;99.90;;;;;;6139446;23;20017;-89
2022/11/19 00:08:57;;;;;;;5.63;3.75;;;1.50;99.90;;;;;;6116261;23;20021;-90
2022/11/19 00:14:11;;;;;;;5.05;3.80;;;1.40;99.90;;;;;;6270344;22;20020;-89
2022/11/19 00:16:37;;;;;;;5.88;3.97;;;1.40;99.90;;;;;;6114754;23;20016;-89
2022/11/19 00:19:03;;;;;;;6.13;4.30;;;1.40;99.90;;;;;;6113196;23;20608;-90
2022/11/19 00:21:29;;;;;;;5.53;3.92;;;1.40;99.90;;;;;;6114251;23;20096;-90
2022/11/19 00:23:55;;;;;;;5.78;3.88;;;1.30;99.90;;;;;;6114553;23;20049;-90
2022/11/19 00:26:21;;;;;;;5.30;4.10;;;1.30;99.90;;;;;;6116066;23;20051;-89
2022/11/19 00:28:47;;;;;;;5.75;4.00;;;1.20;99.90;;;;;;6114855;23;20020;-90
2022/11/19 00:31:14;;;;;;;6.05;4.20;;;1.20;99.90;;;;;;6114706;23;20017;-90
2022/11/19 00:33:41;;;;;;;6.07;4.28;;;1.10;99.90;;;;;;6138367;23;20247;-90
2022/11/19 00:36:10;;;;;;;5.55;4.03;;;1.00;99.90;;;;;;6114856;23;20088;-90
2022/11/19 00:38:36;;;;;;;9.68;4.50;;;1.00;99.90;;;;;;6115652;23;20048;-89
2022/11/19 00:41:02;;;;;;;7.50;4.30;;;0.90;99.90;;;;;;6116052;23;20021;-89
2022/11/19 00:43:46;;;;;;;6.55;4.43;;;0.80;99.90;;;;;;6138111;23;20017;-89
2022/11/19 00:46:19;;;;;;;4.93;4.10;;;0.80;99.90;;;;;;6113365;23;20089;-90
2022/11/19 00:48:46;;;;;;;6.07;3.85;;;0.70;99.90;;;;;;6113851;23;20042;-90
2022/11/19 00:51:13;;;;;;;5.72;4.50;;;0.70;99.90;;;;;;6115269;23;20050;-90
2022/11/19 00:53:39;;;;;;;8.43;4.40;;;0.60;99.90;;;;;;6115981;23;20079;-90
2022/11/19 00:56:08;;;;;;;6.97;4.60;;;0.60;99.90;;;;;;6115725;23;20079;-88
2022/11/19 00:58:34;;;;;;;5.40;3.83;;;0.60;99.90;;;;;;6115457;23;20021;-89
2022/11/19 01:00:59;;;;;;;8.00;4.53;;;0.50;99.90;;;;;;6115276;23;20017;-89
2022/11/19 01:03:25;;;;;;;6.85;4.45;;;0.50;99.90;;;;;;6113329;23;20017;-90
2022/11/19 01:05:54;;;;;;;6.22;4.22;;;0.50;99.90;;;;;;6139378;23;20010;-89
2022/11/19 01:08:20;;;;;;;7.05;4.72;;;0.40;99.90;;;;;;6115301;23;20017;-89
2022/11/19 01:10:45;;;;;;;6.43;4.28;;;0.40;99.90;;;;;;6139578;23;20014;-88
2022/11/19 01:15:56;;;;;;;6.82;5.03;;;0.40;99.90;;;;;;6269381;22;20024;-89
2022/11/19 01:18:22;;;;;;;7.60;4.75;;;0.40;99.90;;;;;;6137602;23;20017;-89
2022/11/19 01:20:50;;;;;;;6.80;4.80;;;0.30;99.90;;;;;;6114114;23;20112;-88
2022/11/19 01:23:16;;;;;;;6.70;4.32;;;0.30;99.90;;;;;;6113949;23;20294;-89
2022/11/19 01:25:42;;;;;;;7.82;4.45;;;0.30;99.90;;;;;;6139690;23;20036;-89
2022/11/19 01:28:07;;;;;;;6.30;4.63;;;0.30;99.90;;;;;;6138571;23;20054;-89
2022/11/19 01:30:53;;;;;;;6.82;4.72;;;0.30;99.90;;;;;;6115238;23;20017;-88
2022/11/19 01:33:19;;;;;;;6.28;4.88;;;0.30;99.90;;;;;;6113719;23;20081;-87
2022/11/19 01:36:03;;;;;;;8.20;4.45;;;0.30;99.90;;;;;;6113682;23;20074;-89
2022/11/19 01:38:29;;;;;;;7.40;4.82;;;0.20;99.90;;;;;;6114647;23;20093;-89
2022/11/19 01:40:56;;;;;;;8.00;4.38;;;0.20;99.90;;;;;;6114764;23;20441;-88
2022/11/19 01:43:50;;;;;;;6.35;4.53;;;0.20;99.90;;;;;;6114099;23;20040;-89
2022/11/19 01:46:21;;;;;;;7.88;4.72;;;0.20;99.90;;;;;;6113828;23;20394;-89
2022/11/19 01:49:15;;;;;;;6.75;4.45;;;0.20;99.90;;;;;;6112465;23;20015;-88
2022/11/19 01:52:01;;;;;;;7.40;5.10;;;0.20;99.90;;;;;;6139499;23;20024;-88
2022/11/19 01:54:42;;;;;;;6.85;5.20;;;0.10;99.90;;;;;;6114579;23;20353;-88
2022/11/19 01:57:12;;;;;;;6.90;4.82;;;0.10;99.90;;;;;;6114131;23;20052;-89
2022/11/19 01:59:38;;;;;;;7.72;4.57;;;0.10;99.90;;;;;;6139603;23;20021;-90
2022/11/19 02:02:04;;;;;;;7.75;4.53;;;0.10;99.90;;;;;;6123085;23;20019;-88
2022/11/19 02:04:39;;;;;;;5.93;4.68;;;0.10;99.90;;;;;;6137947;23;20067;-89
2022/11/19 02:07:14;;;;;;;7.15;4.72;;;0.10;99.90;;;;;;6139016;23;20338;-90
2022/11/19 02:09:40;;;;;;;6.47;4.57;;;0.10;99.90;;;;;;6139322;23;20012;-89
2022/11/19 02:12:18;;;;;;;6.68;4.78;;;0.00;99.90;;;;;;6163409;23;20036;-89
2022/11/19 02:15:09;;;;;;;7.30;4.72;;;0.00;99.90;;;;;;6138428;23;20024;-90
2022/11/19 02:17:57;;;;;;;8.15;4.80;;;0.00;99.90;;;;;;6139144;22;20086;-89
2022/11/19 02:20:45;;;;;;;6.18;4.75;;;0.00;99.90;;;;;;6138891;23;20386;-90
2022/11/19 02:23:34;;;;;;;6.28;4.15;;;0.00;99.90;;;;;;6137998;22;20025;-89
2022/11/19 02:26:19;;;;;;;7.32;4.90;;;0.00;99.90;;;;;;6139523;23;20021;-90
2022/11/19 02:29:09;;;;;;;7.03;4.73;;;-0.10;99.90;;;;;;6139242;22;20032;-89
2022/11/19 02:31:47;;;;;;;7.28;4.80;;;-0.10;99.90;;;;;;6139102;23;20077;-90
2022/11/19 02:34:17;;;;;;;5.95;4.97;;;-0.10;99.90;;;;;;6139390;23;20088;-91
2022/11/19 02:37:01;;;;;;;6.90;4.70;;;-0.20;99.90;;;;;;6164878;23;20025;-91
2022/11/19 02:39:45;;;;;;;6.40;4.43;;;-0.20;99.90;;;;;;6139966;23;20081;-91
2022/11/19 02:42:28;;;;;;;6.53;4.40;;;-0.20;99.90;;;;;;6140719;23;20013;-91
2022/11/19 02:45:04;;;;;;;7.88;5.15;;;-0.20;99.90;;;;;;6140621;23;20391;-91
2022/11/19 02:47:58;;;;;;;7.20;4.60;;;-0.30;99.90;;;;;;6139294;23;20795;-90
2022/11/19 02:50:34;;;;;;;8.00;5.03;;;-0.30;99.90;;;;;;6139295;23;20015;-91
2022/11/19 02:53:04;;;;;;;7.50;4.85;;;-0.40;99.90;;;;;;6139679;23;20028;-90
2022/11/19 02:55:30;;;;;;;6.38;4.57;;;-0.40;99.90;;;;;;6139631;23;20025;-91
2022/11/19 02:58:03;;;;;;;8.82;5.15;;;-0.40;99.90;;;;;;6137816;23;20115;-90
2022/11/19 03:06:15;;;;;;;9.17;5.43;;;-0.50;99.90;;;;;;6163812;23;20017;-90
2022/11/19 03:08:42;;;;;;;7.30;5.53;;;-0.60;99.90;;;;;;6138726;23;20010;-90
2022/11/19 03:11:23;;;;;;;9.82;6.28;;;-0.60;99.90;;;;;;6139228;23;20495;-90
2022/11/19 03:17:20;;;;;;;8.35;6.00;;;-0.70;99.90;;;;;;6163641;23;20988;-90
2022/11/19 03:19:54;;;;;;;8.65;6.53;;;-0.80;99.90;;;;;;6137597;23;20017;-91
2022/11/19 03:22:25;;;;;;;10.60;7.40;;;-0.80;99.90;;;;;;6163772;23;20017;-90
2022/11/19 03:25:06;;;;;;;8.82;7.07;;;-0.80;99.90;;;;;;6138916;23;20021;-91
2022/11/19 03:27:40;;;;;;;9.77;6.25;;;-0.90;99.90;;;;;;6162765;23;20103;-90
2022/11/19 03:30:06;;;;;;;10.40;6.80;;;-0.90;99.90;;;;;;6139669;23;20522;-91
2022/11/19 03:32:52;;;;;;;10.02;6.03;;;-0.90;99.90;;;;;;6137822;23;20013;-90
2022/11/19 03:35:24;;;;;;;10.45;6.32;;;-0.90;99.90;;;;;;6138607;23;20020;-90
2022/11/19 03:37:53;;;;;;;10.23;6.95;;;-1.00;99.90;;;;;;6138619;23;20021;-91
2022/11/19 03:40:19;;;;;;;8.15;6.32;;;-1.00;99.90;;;;;;6138981;23;20017;-90
2022/11/19 03:42:48;;;;;;;8.18;5.80;;;-1.00;99.90;;;;;;6138927;23;20602;-91
2022/11/19 03:45:25;;;;;;;7.30;5.80;;;-1.00;99.90;;;;;;6139939;23;20052;-90
2022/11/19 03:47:53;;;;;;;8.75;6.07;;;-1.00;99.90;;;;;;6162700;23;20008;-90
2022/11/19 03:50:36;;;;;;;7.15;5.32;;;-1.00;99.90;;;;;;6164303;23;20024;-90
2022/11/19 03:53:02;;;;;;;7.40;5.68;;;-1.10;99.90;;;;;;6141486;23;20075;-90
2022/11/19 03:56:08;;;;;;;9.00;5.63;;;-1.10;99.90;;;;;;6140179;23;20458;-90
2022/11/19 03:58:42;;;;;;;8.15;5.55;;;-1.10;99.90;;;;;;6140898;23;20138;-90
2022/11/19 04:01:09;;;;;;;9.15;6.25;;;-1.10;99.90;;;;;;6165256;23;20339;-89
2022/11/19 04:03:35;;;;;;;8.73;6.20;;;-1.10;99.90;;;;;;6138281;23;20100;-90
2022/11/19 04:06:02;;;;;;;8.63;5.80;;;-1.10;99.90;;;;;;6114772;23;20056;-89
2022/11/19 04:08:27;;;;;;;10.00;5.35;;;-1.10;99.90;;;;;;6138435;23;20055;-89
2022/11/19 04:10:53;;;;;;;8.32;5.57;;;-1.10;99.90;;;;;;6115509;23;20017;-89
2022/11/19 04:13:19;;;;;;;7.93;5.50;;;-1.10;99.90;;;;;;6114579;23;20017;-89
2022/11/19 04:15:44;;;;;;;7.40;5.40;;;-1.10;99.90;;;;;;6114206;23;20461;-89
2022/11/19 04:18:10;;;;;;;9.68;5.80;;;-1.10;99.90;;;;;;6113939;23;20047;-89
2022/11/19 04:20:36;;;;;;;9.50;5.60;;;-1.10;99.90;;;;;;6114972;23;20048;-89
2022/11/19 04:23:01;;;;;;;9.55;5.28;;;-1.20;99.90;;;;;;6114555;23;20023;-89
2022/11/19 04:25:27;;;;;;;7.80;5.25;;;-1.10;99.90;;;;;;6139118;23;20016;-88
2022/11/19 04:27:52;;;;;;;8.20;5.47;;;-1.20;99.90;;;;;;6114976;23;20021;-88
2022/11/19 04:30:18;;;;;;;8.77;5.47;;;-1.20;99.90;;;;;;6115690;23;20020;-88
2022/11/19 04:32:44;;;;;;;8.98;5.78;;;-1.20;99.90;;;;;;6115579;23;20076;-88
2022/11/19 04:35:09;;;;;;;8.65;6.00;;;-1.20;99.90;;;;;;6114546;23;20021;-89
2022/11/19 04:37:38;;;;;;;8.88;6.00;;;-1.20;99.90;;;;;;6139124;23;20099;-89
2022/11/19 04:40:04;;;;;;;8.70;5.47;;;-1.30;99.90;;;;;;6115030;23;20494;-89
2022/11/19 04:42:30;;;;;;;10.15;6.10;;;-1.30;99.90;;;;;;6115129;23;20374;-89
2022/11/19 04:44:55;;;;;;;8.60;5.93;;;-1.30;99.90;;;;;;6115183;23;20017;-89
2022/11/19 04:47:21;;;;;;;7.03;5.38;;;-1.30;99.90;;;;;;6115416;23;20040;-89
2022/11/19 04:49:46;;;;;;;8.38;6.00;;;-1.40;99.90;;;;;;6113884;23;20111;-87
2022/11/19 04:52:15;;;;;;;8.13;5.57;;;-1.40;99.90;;;;;;6115206;23;20025;-89
2022/11/19 04:54:40;;;;;;;8.27;6.18;;;-1.40;99.90;;;;;;6115767;23;20028;-89
2022/11/19 04:57:06;;;;;;;7.78;5.53;;;-1.40;99.90;;;;;;6140195;23;20021;-89
2022/11/19 04:59:32;;;;;;;8.90;5.78;;;-1.50;99.90;;;;;;6115028;23;20021;-89
2022/11/19 05:01:57;;;;;;;10.00;5.50;;;-1.40;99.90;;;;;;6122706;23;20025;-88
2022/11/19 05:04:23;;;;;;;10.70;5.85;;;-1.50;99.90;;;;;;6137742;23;20036;-88
2022/11/19 05:06:48;;;;;;;8.02;5.80;;;-1.40;99.90;;;;;;6164018;23;20151;-89
2022/11/19 05:09:14;;;;;;;7.95;5.43;;;-1.50;99.90;;;;;;6139725;23;20274;-89
2022/11/19 05:11:40;;;;;;;8.55;5.57;;;-1.50;99.90;;;;;;6139214;23;20442;-89
2022/11/19 05:14:05;;;;;;;8.05;5.60;;;-1.50;99.90;;;;;;6165172;23;20380;-88
2022/11/19 05:16:33;;;;;;;9.10;6.10;;;-1.50;99.90;;;;;;6163901;22;20044;-89
2022/11/19 05:18:59;;;;;;;12.73;6.13;;;-1.50;99.90;;;;;;6138938;23;20028;-88
2022/11/19 05:21:25;;;;;;;8.95;6.28;;;-1.50;99.90;;;;;;6138932;23;20017;-90
2022/11/19 05:23:50;;;;;;;9.02;5.95;;;-1.60;99.90;;;;;;6139453;23;20013;-89
2022/11/19 05:26:16;;;;;;;9.07;6.22;;;-1.60;99.90;;;;;;6139314;23;20469;-89
2022/11/19 05:28:41;;;;;;;8.52;5.97;;;-1.60;99.90;;;;;;6139503;23;20013;-89
2022/11/19 05:31:08;;;;;;;9.07;5.90;;;-1.60;99.90;;;;;;6164632;23;20346;-89
2022/11/19 05:33:34;;;;;;;8.27;5.80;;;-1.60;99.90;;;;;;6138758;23;20016;-89
2022/11/19 05:36:03;;;;;;;9.10;6.43;;;-1.60;99.90;;;;;;6163653;23;20017;-89
2022/11/19 05:38:29;;;;;;;11.70;7.05;;;-1.70;99.90;;;;;;6141169;23;20021;-88
2022/11/19 05:40:54;;;;;;;9.70;6.53;;;-1.70;99.90;;;;;;6140229;23;20495;-89
2022/11/19 05:43:20;;;;;;;9.45;5.93;;;-1.70;99.90;;;;;;6166006;23;20078;-89
2022/11/19 05:45:45;;;;;;;9.77;6.65;;;-1.70;99.90;;;;;;6140560;23;20024;-89
2022/11/19 05:48:11;;;;;;;11.98;6.97;;;-1.70;99.90;;;;;;6164715;23;20023;-89
2022/11/19 05:50:37;;;;;;;9.30;6.10;;;-1.70;99.90;;;;;;6139559;23;20064;-87
2022/11/19 05:53:04;;;;;;;9.27;6.53;;;-1.80;99.90;;;;;;6165079;23;20025;-89
2022/11/19 05:55:32;;;;;;;9.25;6.43;;;-1.80;99.90;;;;;;6139958;23;20055;-89
2022/11/19 05:57:58;;;;;;;11.13;7.15;;;-1.80;99.90;;;;;;6141306;23;20044;-89
2022/11/19 06:00:24;;;;;;;9.30;6.53;;;-1.80;99.90;;;;;;6164626;23;20021;-88
2022/11/19 06:02:49;;;;;;;8.60;5.93;;;-1.80;99.90;;;;;;6140183;23;20244;-89
2022/11/19 06:05:15;;;;;;;9.32;6.30;;;-1.80;99.90;;;;;;6139735;23;20076;-88
2022/11/19 06:07:41;;;;;;;10.50;6.72;;;-1.80;99.90;;;;;;6141117;23;20458;-89
2022/11/19 06:10:10;;;;;;;11.23;6.72;;;-1.80;99.90;;;;;;6140107;23;20082;-89
2022/11/19 06:12:36;;;;;;;9.98;6.63;;;-1.80;99.90;;;;;;6139331;23;20055;-88
2022/11/19 06:15:02;;;;;;;10.35;6.63;;;-1.80;99.90;;;;;;6141701;23;20021;-88
2022/11/19 06:17:28;;;;;;;9.35;6.38;;;-1.90;99.90;;;;;;6138904;23;20063;-88
2022/11/19 06:19:53;;;;;;;9.45;6.47;;;-1.90;99.90;;;;;;6137965;23;20017;-88
2022/11/19 06:22:19;;;;;;;9.65;6.43;;;-1.90;99.90;;;;;;6138360;23;20095;-90
2022/11/19 06:24:45;;;;;;;11.43;6.97;;;-1.90;99.90;;;;;;6138620;23;20104;-89
2022/11/19 06:27:10;;;;;;;11.88;6.90;;;-1.90;99.90;;;;;;6139052;23;20017;-89
2022/11/19 06:29:39;;;;;;;10.23;6.70;;;-1.90;99.90;;;;;;6138506;23;20600;-89
2022/11/19 06:32:05;;;;;;;10.23;7.32;;;-1.90;99.90;;;;;;6163531;23;20153;-89
2022/11/19 06:34:30;;;;;;;9.60;7.63;;;-1.90;99.90;;;;;;6138521;23;20044;-88
2022/11/19 06:36:57;;;;;;;10.82;8.35;;;-1.90;99.90;;;;;;6163824;23;20078;-89
2022/11/19 06:39:23;;;;;;;10.65;7.47;;;-1.90;99.90;;;;;;6139004;23;20024;-89
2022/11/19 06:41:48;;;;;;;9.95;7.13;;;-1.90;99.90;;;;;;6139211;23;20021;-88
2022/11/19 06:44:14;;;;;;;11.15;8.25;;;-1.90;99.90;;;;;;6138854;23;20028;-88
2022/11/19 06:46:40;;;;;;;9.80;7.75;;;-1.90;99.90;;;;;;6138379;23;20506;-88
2022/11/19 06:49:06;;;;;;;12.32;8.23;;;-2.00;99.90;;;;;;6138857;23;20013;-89
2022/11/19 06:51:32;;;;;;;11.48;7.75;;;-2.00;99.90;;;;;;6163985;22;20354;-89
2022/11/19 06:53:57;;;;;;;10.68;8.18;;;-2.00;99.90;;;;;;6139033;23;20421;-89
2022/11/19 06:56:23;;;;;;;11.30;7.65;;;-2.00;99.90;;;;;;6138474;23;20285;-89
2022/11/19 06:58:49;;;;;;;11.60;7.97;;;-2.00;99.90;;;;;;6164097;23;20028;-89
2022/11/19 07:01:14;;;;;;;12.05;8.23;;;-2.00;99.90;;;;;;6138014;23;20027;-89
2022/11/19 07:03:41;;;;;;;11.13;7.55;;;-2.00;99.90;;;;;;6137383;23;20017;-88
2022/11/19 07:06:10;;;;;;;10.60;7.15;;;-2.00;99.90;;;;;;6114235;23;20048;-88
2022/11/19 07:08:36;;;;;;;11.90;7.63;;;-2.00;99.90;;;;;;6138426;23;20449;-88
2022/11/19 07:11:24;;;;;;;11.93;7.45;;;-2.00;99.90;;;;;;6114229;23;20030;-89
2022/11/19 07:13:59;;;;;;;14.05;7.55;;;-2.00;99.90;;;;;;6138097;23;20017;-88
2022/11/19 07:16:28;;;;;;;11.63;7.47;;;-2.00;99.90;;;;;;6114176;23;20096;-88
2022/11/19 07:18:55;;;;;;;11.20;7.40;;;-1.90;99.90;;;;;;6138530;23;20013;-89
2022/11/19 07:21:20;;;;;;;12.05;7.13;;;-2.00;99.90;;;;;;6112779;23;20013;-88
2022/11/19 07:23:46;;;;;;;10.57;7.20;;;-1.90;99.90;;;;;;6114532;23;20020;-89
2022/11/19 07:26:12;;;;;;;12.73;7.95;;;-1.90;99.90;;;;;;6115016;23;20350;-89
2022/11/19 07:28:38;;;;;;;11.75;7.78;;;-1.90;99.90;;;;;;6139932;23;20021;-88
2022/11/19 07:31:07;;;;;;;11.93;7.55;;;-1.90;99.90;;;;;;6140154;23;20262;-88
2022/11/19 07:33:34;;;;;;;14.25;7.65;;;-1.90;99.90;;;;;;6138841;23;20020;-89
2022/11/19 07:36:01;;;;;;;12.82;7.47;;;-1.90;99.90;;;;;;6114337;23;20081;-88
2022/11/19 07:38:27;;;;;;;13.38;8.02;;;-1.90;99.90;;;;;;6115349;23;20012;-89
2022/11/19 07:40:56;;;;;;;14.95;9.40;;;-1.90;99.90;;;;;;6115064;23;20021;-89
2022/11/19 07:43:22;;;;;;;14.27;7.82;;;-1.80;99.90;;;;;;6115326;23;20044;-89
2022/11/19 07:45:48;;;;;;;11.80;8.32;;;-1.80;99.90;;;;;;6115883;23;20047;-89
2022/11/19 07:48:14;;;;;;;15.15;9.20;;;-1.80;99.90;;;;;;6114201;23;20041;-88
2022/11/19 07:50:49;;;;;;;14.23;9.23;;;-1.70;99.90;;;;;;6113529;23;20009;-86
2022/11/19 07:53:15;;;;;;;14.05;8.35;;;-1.70;99.90;;;;;;6111791;23;20016;-86
2022/11/19 07:55:42;;;;;;;13.95;8.90;;;-1.70;99.90;;;;;;6113366;23;20054;-86
2022/11/19 07:58:11;;;;;;;14.57;8.55;;;-1.70;99.90;;;;;;6111636;23;20017;-86
2022/11/19 08:00:42;;;;;;;12.88;8.57;;;-1.70;99.90;;;;;;6112451;23;20552;-86
2022/11/19 08:03:10;;;;;;;12.65;8.75;;;-1.60;99.90;;;;;;6158367;23;20333;-86
2022/11/19 08:05:37;;;;;;;13.73;8.40;;;-1.60;99.90;;;;;;6161408;23;20032;-86
2022/11/19 08:08:03;;;;;;;13.13;9.00;;;-1.60;99.90;;;;;;6136622;23;20305;-86
2022/11/19 08:10:29;;;;;;;13.93;8.30;;;-1.50;99.90;;;;;;6137519;22;20091;-85
2022/11/19 08:13:04;;;;;;;14.95;9.05;;;-1.50;99.90;;;;;;6137273;23;20021;-86
2022/11/19 08:15:30;;;;;;;13.75;9.15;;;-1.50;99.90;;;;;;6137607;23;20021;-86
2022/11/19 08:18:11;;;;;;;11.50;7.78;;;-1.40;99.90;;;;;;6137954;23;20017;-86
2022/11/19 08:20:41;;;;;;;13.30;9.00;;;-1.40;99.90;;;;;;6137422;23;20401;-86
2022/11/19 08:23:08;;;;;;;13.60;8.65;;;-1.30;99.90;;;;;;6161236;23;20020;-86
2022/11/19 08:25:34;;;;;;;11.95;8.25;;;-1.30;99.90;;;;;;6136763;23;20048;-85
2022/11/19 08:28:01;;;;;;;15.55;8.80;;;-1.30;99.90;;;;;;6138144;23;20020;-85
2022/11/19 08:30:27;;;;;;;14.38;8.63;;;-1.20;99.90;;;;;;6139246;23;20472;-86
2022/11/19 08:32:53;;;;;;;12.80;8.70;;;-1.10;99.90;;;;;;6163230;23;20113;-86
2022/11/19 08:35:19;;;;;;;13.50;8.20;;;-1.10;99.90;;;;;;6137533;23;20179;-85
2022/11/19 08:37:45;;;;;;;12.25;8.57;;;-1.10;99.90;;;;;;6138584;23;20112;-85
2022/11/19 08:40:11;;;;;;;14.80;7.95;;;-1.00;99.90;;;;;;6138059;23;20246;-86
2022/11/19 08:45:30;;;;;;;12.15;8.10;;;-0.90;99.90;;;;;;6161312;23;20031;-85
2022/11/19 08:47:58;;;;;;;13.70;8.48;;;-0.90;99.90;;;;;;6163091;23;20445;-86
2022/11/19 08:50:27;;;;;;;11.40;8.25;;;-0.90;99.90;;;;;;6138426;23;20327;-85
2022/11/19 08:53:06;;;;;;;14.05;8.50;;;-0.80;99.90;;;;;;6138349;23;20056;-86
2022/11/19 08:55:32;;;;;;;11.45;8.35;;;-0.80;99.90;;;;;;6163461;23;20021;-85
2022/11/19 08:58:03;;;;;;;11.48;7.90;;;-0.70;99.90;;;;;;6136663;23;20039;-85
2022/11/19 09:00:31;;;;;;;11.75;9.00;;;-0.70;99.90;;;;;;6137672;23;20133;-85
2022/11/19 09:02:57;;;;;;;12.05;8.13;;;-0.60;99.90;;;;;;6160588;23;20021;-85
2022/11/19 09:05:23;;;;;;;11.73;8.07;;;-0.60;99.90;;;;;;6161037;23;20561;-85
2022/11/19 09:07:49;;;;;;;13.10;8.88;;;-0.60;99.90;;;;;;6136576;23;20017;-86
2022/11/19 09:10:15;;;;;;;13.27;8.85;;;-0.50;99.90;;;;;;6138012;23;20009;-86
2022/11/19 09:12:41;;;;;;;12.25;8.15;;;-0.50;99.90;;;;;;6138205;23;20086;-85
2022/11/19 09:15:07;;;;;;;11.90;8.25;;;-0.40;99.90;;;;;;6139440;23;20024;-86
2022/11/19 09:17:34;;;;;;;13.52;7.90;;;-0.40;99.90;;;;;;6138421;23;20498;-87
2022/11/19 09:20:00;;;;;;;11.75;8.38;;;-0.40;99.90;;;;;;6162596;23;20016;-88
2022/11/19 09:22:26;;;;;;;12.27;8.38;;;-0.30;99.90;;;;;;6136639;23;20471;-87
2022/11/19 09:24:51;;;;;;;10.43;8.10;;;-0.30;99.90;;;;;;6163299;23;20009;-88
2022/11/19 09:27:17;;;;;;;12.88;8.38;;;-0.20;99.90;;;;;;6138966;23;20024;-88
2022/11/19 09:29:43;;;;;;;11.85;8.15;;;-0.20;99.90;;;;;;6138581;23;20397;-88
2022/11/19 09:32:08;;;;;;;10.57;7.68;;;-0.10;99.90;;;;;;6164143;23;20044;-89
2022/11/19 09:34:36;;;;;;;12.60;8.07;;;-0.10;99.90;;;;;;6137429;23;20052;-89
2022/11/19 09:37:02;;;;;;;13.63;7.95;;;-0.10;99.90;;;;;;6138678;23;20023;-87
2022/11/19 09:39:31;;;;;;;10.88;7.63;;;0.00;99.90;;;;;;6138088;23;20104;-87
2022/11/19 09:42:18;;;;;;;13.45;8.48;;;0.00;99.90;;;;;;6139275;23;20368;-88
2022/11/19 09:45:15;;;;;;;10.20;7.78;;;0.00;99.90;;;;;;6138747;23;20024;-89
2022/11/19 09:47:55;;;;;;;11.88;8.27;;;0.10;91.10;;;;;;6137891;23;20014;-88
2022/11/19 09:50:34;;;;;;;11.70;8.55;;;0.10;99.90;;;;;;6138066;23;20013;-88
2022/11/19 09:53:12;;;;;;;10.43;7.80;;;0.20;99.90;;;;;;6137554;23;20418;-87
2022/11/19 09:55:41;;;;;;;10.13;7.97;;;0.20;85.70;;;;;;6137903;23;20122;-88
2022/11/19 09:58:35;;;;;;;13.40;8.15;;;0.30;38.40;;;;;;6137951;23;20017;-87
2022/11/19 10:01:01;;;;;;;12.32;7.75;;;0.30;1.00;;;;;;6162764;23;20408;-88
2022/11/19 10:03:31;;;;;;;11.30;7.45;;;0.30;1.00;;;;;;6114191;23;20032;-88
2022/11/19 10:06:09;;;;;;;12.35;7.40;;;0.40;1.00;;;;;;6137606;23;20013;-88
2022/11/19 10:08:46;;;;;;;12.68;7.93;;;0.50;1.00;;;;;;6113677;22;20017;-87
2022/11/19 10:11:36;;;;;;;13.98;6.85;;;0.50;1.00;;;;;;6113194;23;20343;-88
2022/11/19 10:14:26;;;;;;;11.95;7.68;;;0.60;1.00;;;;;;6112889;23;20490;-87
2022/11/19 10:17:38;;;;;;;9.52;6.60;;;0.60;99.90;;;;;;6115940;23;20235;-88
2022/11/19 10:20:17;;;;;;;10.63;7.28;;;0.70;1.00;;;;;;6114798;23;20020;-88
2022/11/19 10:23:05;;;;;;;11.65;7.65;;;0.80;1.00;;;;;;6112441;23;20089;-88
2022/11/19 10:25:56;;;;;;;10.93;7.40;;;0.80;1.00;;;;;;6107925;23;20020;-88
2022/11/19 10:28:28;;;;;;;9.23;6.68;;;0.80;99.90;;;;;;6162137;23;20028;-88
2022/11/19 10:31:06;;;;;;;11.15;6.97;;;0.90;99.90;;;;;;6113619;23;20046;-87
2022/11/19 10:33:54;;;;;;;11.18;7.07;;;0.90;99.90;;;;;;6137124;22;20458;-88
2022/11/19 10:36:35;;;;;;;9.90;6.95;;;1.00;99.90;;;;;;6136224;23;20028;-89
2022/11/19 10:39:35;;;;;;;10.00;7.30;;;1.00;99.90;;;;;;6112815;23;20359;-88
2022/11/19 10:42:42;;;;;;;10.35;7.22;;;1.10;99.90;;;;;;6111614;23;20074;-88
2022/11/19 10:45:17;;;;;;;11.05;7.45;;;1.10;99.90;;;;;;6137065;23;20028;-88
2022/11/19 10:47:46;;;;;;;10.60;7.30;;;1.20;99.90;;;;;;6137041;23;20099;-88
2022/11/19 10:50:21;;;;;;;10.43;7.30;;;1.20;99.90;;;;;;6111908;23;20017;-89
2022/11/19 10:53:04;;;;;;;8.90;6.78;;;1.20;99.90;;;;;;6112061;23;20021;-88
2022/11/19 10:55:41;;;;;;;10.73;6.90;;;1.30;99.90;;;;;;6113631;23;20108;-88
2022/11/19 10:58:10;;;;;;;11.50;7.28;;;1.30;99.90;;;;;;6112810;23;20017;-88
2022/11/19 11:00:38;;;;;;;10.55;7.00;;;1.40;99.90;;;;;;6140322;23;20344;-88
2022/11/19 11:03:12;;;;;;;10.50;6.90;;;1.40;99.90;;;;;;6137275;23;20020;-88
2022/11/19 11:06:08;;;;;;;9.60;6.53;;;1.40;99.90;;;;;;6140603;23;20020;-87
2022/11/19 11:08:50;;;;;;;9.27;6.50;;;1.50;99.90;;;;;;6151110;23;20123;-88
2022/11/19 11:17:15;;;;;;;10.30;6.43;;;1.60;99.90;;;;;;6165003;23;20021;-88
2022/11/19 11:19:42;;;;;;;9.38;6.75;;;1.60;99.90;;;;;;6140363;23;20019;-89
2022/11/19 11:22:11;;;;;;;9.43;6.68;;;1.70;99.90;;;;;;6140405;23;20017;-88
2022/11/19 11:24:37;;;;;;;10.05;6.65;;;1.70;99.90;;;;;;6141421;23;20017;-88
2022/11/19 11:27:18;;;;;;;9.40;6.15;;;1.70;99.90;;;;;;6164790;23;20484;-89
2022/11/19 11:29:44;;;;;;;10.23;6.70;;;1.80;99.90;;;;;;6165793;23;20209;-89
2022/11/19 11:32:27;;;;;;;11.15;7.60;;;1.80;99.90;;;;;;6141962;23;20025;-89
2022/11/19 11:34:53;;;;;;;9.20;6.18;;;1.80;99.90;;;;;;6140125;23;20021;-89
2022/11/19 11:37:19;;;;;;;8.85;6.30;;;1.90;1.00;;;;;;6139829;23;20032;-88
2022/11/19 11:39:49;;;;;;;10.93;6.75;;;1.90;37.30;;;;;;6139573;23;20063;-88
2022/11/19 11:42:18;;;;;;;8.00;5.90;;;2.00;99.90;;;;;;6139008;23;20072;-90
2022/11/19 11:45:23;;;;;;;8.85;5.90;;;2.00;99.90;;;;;;6140446;23;20097;-88
2022/11/19 11:47:48;;;;;;;8.65;5.82;;;2.10;99.90;;;;;;6166077;23;20062;-88
2022/11/19 11:50:20;;;;;;;8.55;6.18;;;2.10;83.20;;;;;;6140299;23;20036;-89
2022/11/19 11:52:50;;;;;;;9.18;6.22;;;2.20;99.90;;;;;;6140451;23;20304;-88
2022/11/19 11:55:37;;;;;;;9.48;5.80;;;2.20;1.00;;;;;;6139159;23;20104;-88
2022/11/19 11:58:23;;;;;;;8.20;6.22;;;2.20;1.00;;;;;;6162626;23;20552;-88
2022/11/19 12:00:54;;;;;;;8.23;5.75;;;2.30;99.90;;;;;;6139179;23;20163;-88
2022/11/19 12:03:20;;;;;;;8.75;5.82;;;2.40;99.90;;;;;;6139680;23;20017;-90
2022/11/19 12:06:15;;;;;;;9.27;6.13;;;2.50;99.90;;;;;;6137982;23;20021;-88
2022/11/19 12:08:59;;;;;;;8.65;6.20;;;2.50;98.80;;;;;;6163876;23;20024;-89
2022/11/19 12:11:53;;;;;;;8.02;5.65;;;2.50;99.90;;;;;;6139725;23;20017;-89
2022/11/19 12:14:40;;;;;;;9.15;5.97;;;2.50;99.90;;;;;;6140886;23;20082;-89
2022/11/19 12:17:17;;;;;;;11.27;6.57;;;2.60;99.90;;;;;;6139743;23;20017;-88
2022/11/19 12:20:11;;;;;;;8.27;5.43;;;2.60;99.90;;;;;;6138877;23;20499;-88
2022/11/19 12:22:59;;;;;;;8.88;5.63;;;2.70;99.90;;;;;;6176440;23;20120;-87
2022/11/19 12:25:33;;;;;;;9.57;6.22;;;2.70;99.90;;;;;;6138243;22;20017;-88
2022/11/19 12:28:23;;;;;;;9.82;5.65;;;2.80;99.90;;;;;;6137374;23;20450;-88
2022/11/19 12:31:17;;;;;;;7.70;5.93;;;2.80;99.90;;;;;;6163468;23;20104;-87
2022/11/19 12:34:22;;;;;;;9.93;5.70;;;2.70;99.90;;;;;;6138677;23;20020;-88
2022/11/19 12:37:16;;;;;;;9.95;5.78;;;2.70;99.90;;;;;;6137254;23;20019;-88
2022/11/19 12:39:51;;;;;;;8.85;5.78;;;2.70;99.90;;;;;;6137493;23;20535;-88
2022/11/19 12:42:43;;;;;;;8.52;5.50;;;2.80;99.90;;;;;;6138078;23;20071;-88
2022/11/19 12:45:17;;;;;;;7.85;5.40;;;2.80;99.90;;;;;;6162905;23;20032;-88
2022/11/19 12:48:02;;;;;;;7.20;5.18;;;2.70;99.90;;;;;;6138512;23;20390;-88
2022/11/19 12:50:34;;;;;;;8.23;5.50;;;2.80;99.90;;;;;;6138511;22;20032;-88
2022/11/19 12:53:10;;;;;;;9.18;6.07;;;2.70;99.90;;;;;;6162234;23;20024;-88
2022/11/19 12:55:48;;;;;;;8.90;5.38;;;2.70;99.90;;;;;;6138981;23;20021;-88
2022/11/19 12:58:42;;;;;;;7.57;5.32;;;2.70;99.90;;;;;;6138968;23;20114;-88
2022/11/19 13:01:16;;;;;;;7.63;5.80;;;2.80;99.90;;;;;;6139161;23;20212;-88
2022/11/19 13:03:56;;;;;;;7.97;5.40;;;2.80;99.90;;;;;;6113432;23;20143;-88
2022/11/19 13:06:27;;;;;;;8.13;5.47;;;2.90;99.90;;;;;;6114131;23;20048;-88
2022/11/19 13:09:11;;;;;;;10.15;5.25;;;2.90;99.90;;;;;;6139327;23;20017;-88
2022/11/19 13:11:48;;;;;;;9.45;5.50;;;2.90;99.90;;;;;;6138617;23;20560;-87
2022/11/19 13:14:39;;;;;;;7.88;5.38;;;2.90;99.90;;;;;;6114210;23;20405;-88
2022/11/19 13:17:25;;;;;;;9.25;5.72;;;2.90;99.90;;;;;;6140127;23;20017;-88
2022/11/19 13:19:56;;;;;;;8.13;4.93;;;2.90;99.90;;;;;;6114637;23;20024;-88
2022/11/19 13:22:32;;;;;;;8.55;5.50;;;2.90;99.90;;;;;;6139069;23;20013;-88
2022/11/19 13:25:03;;;;;;;7.78;4.82;;;3.00;99.90;;;;;;6112849;23;20088;-88
2022/11/19 13:27:30;;;;;;;7.00;5.03;;;3.00;99.90;;;;;;6112649;23;20013;-88
2022/11/19 13:30:12;;;;;;;7.35;5.22;;;3.00;99.90;;;;;;6115651;23;20026;-88
2022/11/19 13:32:56;;;;;;;8.07;4.90;;;3.00;99.90;;;;;;6114242;23;20017;-88
2022/11/19 13:35:23;;;;;;;8.18;4.85;;;3.10;99.90;;;;;;6114439;23;20063;-89
2022/11/19 13:38:17;;;;;;;7.22;4.60;;;3.00;99.90;;;;;;6137900;23;20021;-88